CKB7 weather

Roblin Airport
Roblin, Manitoba, Canada

Public forecast

Using degrees Celsius for public forecast. Weather courtesy of forecast.io.

METAR (pilot weather report)

Closest report is Yorkton Municipal Airport, 40.2 nm (74.5 km) W. Retrieved 2019/09/21 07:00 UTC (46 minutes ago):

CYQV 210700Z AUTO 28007KT 9SM FEW110 OVC140 12/11 A2975 RMK SLP081 DENSITY ALT 1800FT

TAF (pilot weather forecast)

Forecast is more than 12 hours old.

Closest forecast is Yorkton Municipal Airport, 40.2 nm (74.5 km) W. Retrieved 2019/09/20 00:00 UTC (1 day ago):

TAF CYQV 202338Z 2100/2106 33007KT P6SM SCT030 TEMPO 2100/2106 BKN030 RMK FCST BASED ON AUTO OBS. NXT FCST WILL BE ISSUED AT 211145Z